Main page
METAR-TAF:

METAR-TAF

Airports :

Sparta Community Airport (Hunter Field)

Sparta, Illinois, United States

latitude: 38-08-56N, longitude: 089-41-55W, elevation: 538 ft

Current weather observation

The report was made 23 minutes ago, at 10:55 UTC
Wind 5 mph from the South
Temperature 41°F
Humidity 70%
Pressure 30.13 in. Hg
Visibility: 10 miles
Overcast at a height of 6500 ft

METAR: KSAR 231055Z AUTO 19004KT 10SM OVC065 05/00 A3013 RMK AO2 T00520000

Time: 05:18 (11:18 UTC)


TAF: missing

Weather observations and forecasts of more than 4000 airports (METAR and TAF reports).

The available stations are represented by yellow and red dots on the map.

Hover mouse over dot to see the name of the station.

Then click to see weather observations and forecasts.

To change the map : click on the green buttons with a black cross to zoom in, on the green button with a dash to zoom out, or on the green arrows for adjacent maps.


METAR-TAF: